sensor_id;sensor_type;location;lat;lon;timestamp;temperature;humidity
33994;DHT22;20673;48.980;8.138;2024-02-23T00:01:20;8.10;1.00
33994;DHT22;20673;48.980;8.138;2024-02-23T00:03:46;8.10;1.00
33994;DHT22;20673;48.980;8.138;2024-02-23T00:06:12;8.10;1.00
33994;DHT22;20673;48.980;8.138;2024-02-23T00:08:40;8.00;1.00
33994;DHT22;20673;48.980;8.138;2024-02-23T00:11:07;8.10;1.00
33994;DHT22;20673;48.980;8.138;2024-02-23T00:13:33;8.00;1.00
33994;DHT22;20673;48.980;8.138;2024-02-23T00:15:59;8.00;1.00
33994;DHT22;20673;48.980;8.138;2024-02-23T00:18:25;8.00;1.00
33994;DHT22;20673;48.980;8.138;2024-02-23T00:20:51;7.90;1.00
33994;DHT22;20673;48.980;8.138;2024-02-23T00:23:18;7.90;1.00
33994;DHT22;20673;48.980;8.138;2024-02-23T00:25:45;7.80;1.00
33994;DHT22;20673;48.980;8.138;2024-02-23T00:28:11;7.80;14.40
33994;DHT22;20673;48.980;8.138;2024-02-23T00:30:37;7.70;11.60
33994;DHT22;20673;48.980;8.138;2024-02-23T00:33:03;7.70;1.60
33994;DHT22;20673;48.980;8.138;2024-02-23T00:35:30;7.70;1.00
33994;DHT22;20673;48.980;8.138;2024-02-23T00:37:56;7.60;11.90
33994;DHT22;20673;48.980;8.138;2024-02-23T00:40:22;7.70;1.00
33994;DHT22;20673;48.980;8.138;2024-02-23T00:42:51;7.70;1.00
33994;DHT22;20673;48.980;8.138;2024-02-23T00:45:17;7.70;1.00
33994;DHT22;20673;48.980;8.138;2024-02-23T00:47:44;7.70;1.00
33994;DHT22;20673;48.980;8.138;2024-02-23T00:50:12;7.70;1.00
33994;DHT22;20673;48.980;8.138;2024-02-23T00:52:38;7.70;1.00
33994;DHT22;20673;48.980;8.138;2024-02-23T00:55:05;7.70;1.00
33994;DHT22;20673;48.980;8.138;2024-02-23T00:57:34;7.70;1.00
33994;DHT22;20673;48.980;8.138;2024-02-23T01:00:01;7.70;1.00
33994;DHT22;20673;48.980;8.138;2024-02-23T01:02:31;7.60;1.00
33994;DHT22;20673;48.980;8.138;2024-02-23T01:04:58;7.60;1.00
33994;DHT22;20673;48.980;8.138;2024-02-23T01:07:25;7.60;1.00
33994;DHT22;20673;48.980;8.138;2024-02-23T01:09:51;7.60;1.00
33994;DHT22;20673;48.980;8.138;2024-02-23T01:12:17;7.60;1.00
33994;DHT22;20673;48.980;8.138;2024-02-23T01:14:43;7.50;1.00
33994;DHT22;20673;48.980;8.138;2024-02-23T01:17:09;7.40;1.10
33994;DHT22;20673;48.980;8.138;2024-02-23T01:19:35;7.30;6.60
33994;DHT22;20673;48.980;8.138;2024-02-23T01:22:02;7.40;1.00
33994;DHT22;20673;48.980;8.138;2024-02-23T01:24:28;7.30;6.40
33994;DHT22;20673;48.980;8.138;2024-02-23T01:26:55;7.30;1.00
33994;DHT22;20673;48.980;8.138;2024-02-23T01:29:24;7.40;1.00
33994;DHT22;20673;48.980;8.138;2024-02-23T01:31:51;7.30;3.90
33994;DHT22;20673;48.980;8.138;2024-02-23T01:34:22;7.30;1.40
33994;DHT22;20673;48.980;8.138;2024-02-23T01:36:48;7.40;1.00
33994;DHT22;20673;48.980;8.138;2024-02-23T01:39:15;7.40;1.00
33994;DHT22;20673;48.980;8.138;2024-02-23T01:41:41;7.50;1.00
33994;DHT22;20673;48.980;8.138;2024-02-23T01:44:10;7.50;1.00
33994;DHT22;20673;48.980;8.138;2024-02-23T01:46:37;7.50;1.00
33994;DHT22;20673;48.980;8.138;2024-02-23T01:49:04;7.50;1.00
33994;DHT22;20673;48.980;8.138;2024-02-23T01:51:31;7.50;1.00
33994;DHT22;20673;48.980;8.138;2024-02-23T01:53:58;7.50;1.00
33994;DHT22;20673;48.980;8.138;2024-02-23T01:56:24;7.50;1.00
33994;DHT22;20673;48.980;8.138;2024-02-23T01:58:52;7.50;1.00
33994;DHT22;20673;48.980;8.138;2024-02-23T02:01:19;7.50;1.00
33994;DHT22;20673;48.980;8.138;2024-02-23T02:03:45;7.50;1.00
33994;DHT22;20673;48.980;8.138;2024-02-23T02:06:12;7.50;1.00
33994;DHT22;20673;48.980;8.138;2024-02-23T02:08:39;7.50;1.00
33994;DHT22;20673;48.980;8.138;2024-02-23T02:11:05;7.50;1.00
33994;DHT22;20673;48.980;8.138;2024-02-23T02:13:31;7.50;1.00
33994;DHT22;20673;48.980;8.138;2024-02-23T02:16:01;7.50;1.00
33994;DHT22;20673;48.980;8.138;2024-02-23T02:18:27;7.50;1.00
33994;DHT22;20673;48.980;8.138;2024-02-23T02:20:55;7.50;1.00
33994;DHT22;20673;48.980;8.138;2024-02-23T02:23:23;7.50;1.00
33994;DHT22;20673;48.980;8.138;2024-02-23T02:25:53;7.40;1.00
33994;DHT22;20673;48.980;8.138;2024-02-23T02:28:23;7.40;1.00
33994;DHT22;20673;48.980;8.138;2024-02-23T02:30:53;7.40;1.00
33994;DHT22;20673;48.980;8.138;2024-02-23T02:33:19;7.40;1.00
33994;DHT22;20673;48.980;8.138;2024-02-23T02:35:46;7.40;1.00
33994;DHT22;20673;48.980;8.138;2024-02-23T02:38:12;7.40;1.00
33994;DHT22;20673;48.980;8.138;2024-02-23T02:40:39;7.40;1.00
33994;DHT22;20673;48.980;8.138;2024-02-23T02:43:07;7.40;1.00
33994;DHT22;20673;48.980;8.138;2024-02-23T02:45:36;7.40;1.00
33994;DHT22;20673;48.980;8.138;2024-02-23T02:48:02;7.40;1.00
33994;DHT22;20673;48.980;8.138;2024-02-23T02:50:29;7.40;1.00
33994;DHT22;20673;48.980;8.138;2024-02-23T02:52:55;7.40;1.00
33994;DHT22;20673;48.980;8.138;2024-02-23T02:55:21;7.30;1.00
33994;DHT22;20673;48.980;8.138;2024-02-23T02:57:47;7.30;1.00
33994;DHT22;20673;48.980;8.138;2024-02-23T03:00:13;7.20;1.00
33994;DHT22;20673;48.980;8.138;2024-02-23T03:02:40;7.20;1.00
33994;DHT22;20673;48.980;8.138;2024-02-23T03:05:06;7.20;1.00
33994;DHT22;20673;48.980;8.138;2024-02-23T03:07:33;7.10;1.00
33994;DHT22;20673;48.980;8.138;2024-02-23T03:09:59;7.10;1.00
33994;DHT22;20673;48.980;8.138;2024-02-23T03:12:25;7.00;1.00
33994;DHT22;20673;48.980;8.138;2024-02-23T03:14:51;7.00;1.00
33994;DHT22;20673;48.980;8.138;2024-02-23T03:17:17;6.90;1.00
33994;DHT22;20673;48.980;8.138;2024-02-23T03:19:43;6.80;1.00
33994;DHT22;20673;48.980;8.138;2024-02-23T03:22:09;6.80;1.00
33994;DHT22;20673;48.980;8.138;2024-02-23T03:24:35;6.80;1.00
33994;DHT22;20673;48.980;8.138;2024-02-23T03:27:02;6.80;1.00
33994;DHT22;20673;48.980;8.138;2024-02-23T03:29:28;6.80;1.00
33994;DHT22;20673;48.980;8.138;2024-02-23T03:31:55;6.80;1.00
33994;DHT22;20673;48.980;8.138;2024-02-23T03:34:22;6.80;1.00
33994;DHT22;20673;48.980;8.138;2024-02-23T03:36:53;6.70;1.00
33994;DHT22;20673;48.980;8.138;2024-02-23T03:39:19;6.70;1.00
33994;DHT22;20673;48.980;8.138;2024-02-23T03:41:45;6.70;1.00
33994;DHT22;20673;48.980;8.138;2024-02-23T03:44:11;6.60;1.00
33994;DHT22;20673;48.980;8.138;2024-02-23T03:46:37;6.60;1.00
33994;DHT22;20673;48.980;8.138;2024-02-23T03:49:03;6.50;1.00
33994;DHT22;20673;48.980;8.138;2024-02-23T03:51:29;6.40;1.00
33994;DHT22;20673;48.980;8.138;2024-02-23T03:53:57;6.40;1.00
33994;DHT22;20673;48.980;8.138;2024-02-23T03:56:23;6.40;1.00
33994;DHT22;20673;48.980;8.138;2024-02-23T03:58:49;6.40;1.00
33994;DHT22;20673;48.980;8.138;2024-02-23T04:01:16;6.40;1.00
33994;DHT22;20673;48.980;8.138;2024-02-23T04:03:42;6.40;1.00
33994;DHT22;20673;48.980;8.138;2024-02-23T04:06:08;6.40;1.00
33994;DHT22;20673;48.980;8.138;2024-02-23T04:08:34;6.30;1.00
33994;DHT22;20673;48.980;8.138;2024-02-23T04:11:00;6.30;1.00
33994;DHT22;20673;48.980;8.138;2024-02-23T04:13:26;6.20;1.00
33994;DHT22;20673;48.980;8.138;2024-02-23T04:15:52;6.10;1.00
33994;DHT22;20673;48.980;8.138;2024-02-23T04:18:18;6.10;1.00
33994;DHT22;20673;48.980;8.138;2024-02-23T04:20:45;6.10;1.00
33994;DHT22;20673;48.980;8.138;2024-02-23T04:23:11;6.00;1.00
33994;DHT22;20673;48.980;8.138;2024-02-23T04:25:37;6.00;1.00
33994;DHT22;20673;48.980;8.138;2024-02-23T04:28:03;6.00;1.00
33994;DHT22;20673;48.980;8.138;2024-02-23T04:30:30;6.00;1.00
33994;DHT22;20673;48.980;8.138;2024-02-23T04:32:56;6.10;1.00
33994;DHT22;20673;48.980;8.138;2024-02-23T04:35:22;6.10;1.00
33994;DHT22;20673;48.980;8.138;2024-02-23T04:37:48;6.10;1.00
33994;DHT22;20673;48.980;8.138;2024-02-23T04:40:16;6.10;1.00
33994;DHT22;20673;48.980;8.138;2024-02-23T04:42:43;6.20;1.00
33994;DHT22;20673;48.980;8.138;2024-02-23T04:45:11;6.30;1.00
33994;DHT22;20673;48.980;8.138;2024-02-23T04:47:37;6.30;1.00
33994;DHT22;20673;48.980;8.138;2024-02-23T04:50:06;6.30;1.00
33994;DHT22;20673;48.980;8.138;2024-02-23T04:52:32;6.30;1.00
33994;DHT22;20673;48.980;8.138;2024-02-23T04:54:59;6.30;1.00
33994;DHT22;20673;48.980;8.138;2024-02-23T04:57:25;6.30;1.00
33994;DHT22;20673;48.980;8.138;2024-02-23T04:59:51;6.30;1.00
33994;DHT22;20673;48.980;8.138;2024-02-23T05:02:17;6.30;1.00
33994;DHT22;20673;48.980;8.138;2024-02-23T05:04:44;6.30;1.00
33994;DHT22;20673;48.980;8.138;2024-02-23T05:07:10;6.20;1.00
33994;DHT22;20673;48.980;8.138;2024-02-23T05:09:36;6.20;1.00
33994;DHT22;20673;48.980;8.138;2024-02-23T05:12:02;6.20;1.00
33994;DHT22;20673;48.980;8.138;2024-02-23T05:14:29;6.20;1.00
33994;DHT22;20673;48.980;8.138;2024-02-23T05:16:55;6.10;1.00
33994;DHT22;20673;48.980;8.138;2024-02-23T05:19:21;6.10;1.00
33994;DHT22;20673;48.980;8.138;2024-02-23T05:21:48;6.10;1.00
33994;DHT22;20673;48.980;8.138;2024-02-23T05:24:14;6.10;1.00
33994;DHT22;20673;48.980;8.138;2024-02-23T05:26:40;6.00;1.00
33994;DHT22;20673;48.980;8.138;2024-02-23T05:29:08;5.90;1.00
33994;DHT22;20673;48.980;8.138;2024-02-23T05:31:48;5.90;1.00
33994;DHT22;20673;48.980;8.138;2024-02-23T05:34:15;5.80;1.00
33994;DHT22;20673;48.980;8.138;2024-02-23T05:36:42;5.80;1.00
33994;DHT22;20673;48.980;8.138;2024-02-23T05:39:08;5.80;1.00
33994;DHT22;20673;48.980;8.138;2024-02-23T05:41:36;5.70;1.00
33994;DHT22;20673;48.980;8.138;2024-02-23T05:44:03;5.70;1.00
33994;DHT22;20673;48.980;8.138;2024-02-23T05:46:32;5.60;1.00
33994;DHT22;20673;48.980;8.138;2024-02-23T05:48:59;5.60;1.00
33994;DHT22;20673;48.980;8.138;2024-02-23T05:51:25;5.70;1.00
33994;DHT22;20673;48.980;8.138;2024-02-23T05:53:51;5.70;1.00
33994;DHT22;20673;48.980;8.138;2024-02-23T05:56:17;5.60;1.00
33994;DHT22;20673;48.980;8.138;2024-02-23T05:58:44;5.60;1.00
33994;DHT22;20673;48.980;8.138;2024-02-23T06:01:10;5.50;1.00
33994;DHT22;20673;48.980;8.138;2024-02-23T06:03:36;5.50;1.00
33994;DHT22;20673;48.980;8.138;2024-02-23T06:06:02;5.50;1.00
33994;DHT22;20673;48.980;8.138;2024-02-23T06:08:34;5.40;1.00
33994;DHT22;20673;48.980;8.138;2024-02-23T06:11:02;5.50;1.00
33994;DHT22;20673;48.980;8.138;2024-02-23T06:13:30;5.50;1.00
33994;DHT22;20673;48.980;8.138;2024-02-23T06:15:56;5.60;1.00
33994;DHT22;20673;48.980;8.138;2024-02-23T06:18:22;5.70;1.00
33994;DHT22;20673;48.980;8.138;2024-02-23T06:20:51;5.80;1.00
33994;DHT22;20673;48.980;8.138;2024-02-23T06:23:17;5.90;1.00
33994;DHT22;20673;48.980;8.138;2024-02-23T06:25:44;5.80;1.00
33994;DHT22;20673;48.980;8.138;2024-02-23T06:28:10;5.90;1.00
33994;DHT22;20673;48.980;8.138;2024-02-23T06:30:36;5.90;1.00
33994;DHT22;20673;48.980;8.138;2024-02-23T06:33:02;5.90;1.00
33994;DHT22;20673;48.980;8.138;2024-02-23T06:35:30;5.80;1.00
33994;DHT22;20673;48.980;8.138;2024-02-23T06:37:57;5.80;1.00
33994;DHT22;20673;48.980;8.138;2024-02-23T06:40:23;5.80;1.00
33994;DHT22;20673;48.980;8.138;2024-02-23T06:42:50;5.80;1.00
33994;DHT22;20673;48.980;8.138;2024-02-23T06:45:16;5.80;1.00
33994;DHT22;20673;48.980;8.138;2024-02-23T06:47:44;5.80;1.00
33994;DHT22;20673;48.980;8.138;2024-02-23T06:50:10;5.80;1.00
33994;DHT22;20673;48.980;8.138;2024-02-23T06:52:36;5.80;1.40
33994;DHT22;20673;48.980;8.138;2024-02-23T06:55:03;5.70;4.60
33994;DHT22;20673;48.980;8.138;2024-02-23T06:57:30;5.70;14.10
33994;DHT22;20673;48.980;8.138;2024-02-23T06:59:56;5.60;18.20
33994;DHT22;20673;48.980;8.138;2024-02-23T07:02:22;5.60;15.90
33994;DHT22;20673;48.980;8.138;2024-02-23T07:04:49;5.60;9.20
33994;DHT22;20673;48.980;8.138;2024-02-23T07:07:15;5.70;1.70
33994;DHT22;20673;48.980;8.138;2024-02-23T07:09:41;5.70;1.00
33994;DHT22;20673;48.980;8.138;2024-02-23T07:12:07;5.80;1.00
33994;DHT22;20673;48.980;8.138;2024-02-23T07:14:33;5.80;1.00
33994;DHT22;20673;48.980;8.138;2024-02-23T07:16:59;5.80;2.20
33994;DHT22;20673;48.980;8.138;2024-02-23T07:19:25;5.90;1.00
33994;DHT22;20673;48.980;8.138;2024-02-23T07:21:51;5.90;1.00
33994;DHT22;20673;48.980;8.138;2024-02-23T07:24:17;5.90;1.00
33994;DHT22;20673;48.980;8.138;2024-02-23T07:26:43;5.90;1.00
33994;DHT22;20673;48.980;8.138;2024-02-23T07:29:09;6.00;1.00
33994;DHT22;20673;48.980;8.138;2024-02-23T07:31:35;6.10;1.00
33994;DHT22;20673;48.980;8.138;2024-02-23T07:34:01;6.30;1.00
33994;DHT22;20673;48.980;8.138;2024-02-23T07:36:28;6.50;1.00
33994;DHT22;20673;48.980;8.138;2024-02-23T07:38:54;6.60;1.00
33994;DHT22;20673;48.980;8.138;2024-02-23T07:41:20;6.80;1.00
33994;DHT22;20673;48.980;8.138;2024-02-23T07:43:46;6.90;1.00
33994;DHT22;20673;48.980;8.138;2024-02-23T07:46:13;7.10;1.00
33994;DHT22;20673;48.980;8.138;2024-02-23T07:48:39;7.30;1.00
33994;DHT22;20673;48.980;8.138;2024-02-23T07:51:05;7.50;1.00
33994;DHT22;20673;48.980;8.138;2024-02-23T07:53:32;7.70;1.00
33994;DHT22;20673;48.980;8.138;2024-02-23T07:55:59;7.80;1.00
33994;DHT22;20673;48.980;8.138;2024-02-23T07:58:27;7.70;1.00
33994;DHT22;20673;48.980;8.138;2024-02-23T08:00:53;7.60;1.00
33994;DHT22;20673;48.980;8.138;2024-02-23T08:03:20;7.60;1.00
33994;DHT22;20673;48.980;8.138;2024-02-23T08:05:46;7.50;1.00
33994;DHT22;20673;48.980;8.138;2024-02-23T08:08:12;7.50;1.00
33994;DHT22;20673;48.980;8.138;2024-02-23T08:10:38;7.50;1.00
33994;DHT22;20673;48.980;8.138;2024-02-23T08:13:04;7.50;1.00
33994;DHT22;20673;48.980;8.138;2024-02-23T08:15:30;7.50;1.00
33994;DHT22;20673;48.980;8.138;2024-02-23T08:17:56;7.50;1.00
33994;DHT22;20673;48.980;8.138;2024-02-23T08:20:22;7.50;1.00
33994;DHT22;20673;48.980;8.138;2024-02-23T08:22:49;7.70;1.00
33994;DHT22;20673;48.980;8.138;2024-02-23T08:25:15;7.80;1.00
33994;DHT22;20673;48.980;8.138;2024-02-23T08:27:42;8.00;1.00
33994;DHT22;20673;48.980;8.138;2024-02-23T08:30:09;8.00;1.00
33994;DHT22;20673;48.980;8.138;2024-02-23T08:32:36;8.30;1.00
33994;DHT22;20673;48.980;8.138;2024-02-23T08:35:02;8.60;1.00
33994;DHT22;20673;48.980;8.138;2024-02-23T08:37:29;8.70;1.00
33994;DHT22;20673;48.980;8.138;2024-02-23T08:39:55;8.80;1.00
33994;DHT22;20673;48.980;8.138;2024-02-23T08:42:22;8.60;1.00
33994;DHT22;20673;48.980;8.138;2024-02-23T08:44:48;8.60;1.00
33994;DHT22;20673;48.980;8.138;2024-02-23T08:47:14;8.50;1.00
33994;DHT22;20673;48.980;8.138;2024-02-23T08:49:40;8.40;1.00
33994;DHT22;20673;48.980;8.138;2024-02-23T08:52:06;8.40;1.00
33994;DHT22;20673;48.980;8.138;2024-02-23T08:54:32;8.40;1.00
33994;DHT22;20673;48.980;8.138;2024-02-23T08:56:58;8.40;1.00
33994;DHT22;20673;48.980;8.138;2024-02-23T08:59:24;8.40;1.00
33994;DHT22;20673;48.980;8.138;2024-02-23T09:01:51;8.40;1.00
33994;DHT22;20673;48.980;8.138;2024-02-23T09:04:17;8.40;1.00
33994;DHT22;20673;48.980;8.138;2024-02-23T09:06:43;8.40;1.00
33994;DHT22;20673;48.980;8.138;2024-02-23T09:09:09;8.50;1.00
33994;DHT22;20673;48.980;8.138;2024-02-23T09:11:35;8.50;1.00
33994;DHT22;20673;48.980;8.138;2024-02-23T09:14:01;8.50;1.00
33994;DHT22;20673;48.980;8.138;2024-02-23T09:16:27;8.60;1.00
33994;DHT22;20673;48.980;8.138;2024-02-23T09:18:53;8.60;1.00
33994;DHT22;20673;48.980;8.138;2024-02-23T09:21:19;8.70;1.00
33994;DHT22;20673;48.980;8.138;2024-02-23T09:23:46;8.60;1.00
33994;DHT22;20673;48.980;8.138;2024-02-23T09:26:12;8.60;1.00
33994;DHT22;20673;48.980;8.138;2024-02-23T09:28:38;8.60;1.00
33994;DHT22;20673;48.980;8.138;2024-02-23T09:31:06;8.70;1.00
33994;DHT22;20673;48.980;8.138;2024-02-23T09:33:33;8.90;1.00
33994;DHT22;20673;48.980;8.138;2024-02-23T09:35:59;9.20;1.00
33994;DHT22;20673;48.980;8.138;2024-02-23T09:38:26;9.50;1.00
33994;DHT22;20673;48.980;8.138;2024-02-23T09:40:53;9.80;1.00
33994;DHT22;20673;48.980;8.138;2024-02-23T09:43:22;10.00;1.00
33994;DHT22;20673;48.980;8.138;2024-02-23T09:45:51;10.20;1.00
33994;DHT22;20673;48.980;8.138;2024-02-23T09:48:20;10.40;1.00
33994;DHT22;20673;48.980;8.138;2024-02-23T09:50:47;10.40;1.00
33994;DHT22;20673;48.980;8.138;2024-02-23T09:53:16;10.40;1.00
33994;DHT22;20673;48.980;8.138;2024-02-23T09:55:45;10.70;1.00
33994;DHT22;20673;48.980;8.138;2024-02-23T09:58:12;10.80;1.00
33994;DHT22;20673;48.980;8.138;2024-02-23T10:00:42;11.00;1.00
33994;DHT22;20673;48.980;8.138;2024-02-23T10:03:09;11.20;1.00
33994;DHT22;20673;48.980;8.138;2024-02-23T10:05:35;10.90;1.00
33994;DHT22;20673;48.980;8.138;2024-02-23T10:08:01;10.90;1.00
33994;DHT22;20673;48.980;8.138;2024-02-23T10:10:34;11.20;1.00
33994;DHT22;20673;48.980;8.138;2024-02-23T10:13:02;11.60;1.00
33994;DHT22;20673;48.980;8.138;2024-02-23T10:15:30;11.70;1.00
33994;DHT22;20673;48.980;8.138;2024-02-23T10:17:57;12.20;1.00
33994;DHT22;20673;48.980;8.138;2024-02-23T10:20:23;12.10;1.00
33994;DHT22;20673;48.980;8.138;2024-02-23T10:22:49;11.90;1.00
33994;DHT22;20673;48.980;8.138;2024-02-23T10:25:15;11.70;1.00
33994;DHT22;20673;48.980;8.138;2024-02-23T10:27:42;11.80;1.00
33994;DHT22;20673;48.980;8.138;2024-02-23T10:30:09;12.10;1.00
33994;DHT22;20673;48.980;8.138;2024-02-23T10:32:41;12.20;1.00
33994;DHT22;20673;48.980;8.138;2024-02-23T10:35:16;12.50;1.00
33994;DHT22;20673;48.980;8.138;2024-02-23T10:37:43;12.30;1.00
33994;DHT22;20673;48.980;8.138;2024-02-23T10:40:14;12.00;1.00
33994;DHT22;20673;48.980;8.138;2024-02-23T10:42:45;11.50;1.00
33994;DHT22;20673;48.980;8.138;2024-02-23T10:45:21;11.60;1.00
33994;DHT22;20673;48.980;8.138;2024-02-23T10:47:48;11.80;1.00
33994;DHT22;20673;48.980;8.138;2024-02-23T10:50:17;11.90;1.00
33994;DHT22;20673;48.980;8.138;2024-02-23T10:52:45;11.60;1.00
33994;DHT22;20673;48.980;8.138;2024-02-23T10:55:14;11.50;1.00
33994;DHT22;20673;48.980;8.138;2024-02-23T10:57:42;11.70;1.00
33994;DHT22;20673;48.980;8.138;2024-02-23T11:00:10;12.20;1.00
33994;DHT22;20673;48.980;8.138;2024-02-23T11:02:49;12.40;1.00
33994;DHT22;20673;48.980;8.138;2024-02-23T11:05:18;12.90;1.00
33994;DHT22;20673;48.980;8.138;2024-02-23T11:07:47;13.10;1.00
33994;DHT22;20673;48.980;8.138;2024-02-23T11:10:17;12.90;1.00
33994;DHT22;20673;48.980;8.138;2024-02-23T11:12:44;13.00;1.00
33994;DHT22;20673;48.980;8.138;2024-02-23T11:15:28;13.30;1.00
33994;DHT22;20673;48.980;8.138;2024-02-23T11:17:55;13.50;1.00
33994;DHT22;20673;48.980;8.138;2024-02-23T11:20:22;13.60;1.00
33994;DHT22;20673;48.980;8.138;2024-02-23T11:22:52;13.10;1.00
33994;DHT22;20673;48.980;8.138;2024-02-23T11:25:26;12.50;1.00
33994;DHT22;20673;48.980;8.138;2024-02-23T11:27:55;11.90;1.00
33994;DHT22;20673;48.980;8.138;2024-02-23T11:30:21;11.30;1.00
33994;DHT22;20673;48.980;8.138;2024-02-23T11:32:48;11.00;1.00
33994;DHT22;20673;48.980;8.138;2024-02-23T11:35:15;10.80;1.00
33994;DHT22;20673;48.980;8.138;2024-02-23T11:40:20;10.60;1.00
33994;DHT22;20673;48.980;8.138;2024-02-23T11:42:48;10.50;1.00
33994;DHT22;20673;48.980;8.138;2024-02-23T11:45:15;10.50;1.00
33994;DHT22;20673;48.980;8.138;2024-02-23T11:47:41;10.30;1.00
33994;DHT22;20673;48.980;8.138;2024-02-23T11:50:08;10.40;99.90
33994;DHT22;20673;48.980;8.138;2024-02-23T11:52:39;10.50;99.90
33994;DHT22;20673;48.980;8.138;2024-02-23T11:55:06;10.40;99.90
33994;DHT22;20673;48.980;8.138;2024-02-23T11:57:34;10.20;99.90
33994;DHT22;20673;48.980;8.138;2024-02-23T12:00:02;10.20;99.90
33994;DHT22;20673;48.980;8.138;2024-02-23T12:02:28;10.30;99.90
33994;DHT22;20673;48.980;8.138;2024-02-23T12:04:55;10.30;99.90
33994;DHT22;20673;48.980;8.138;2024-02-23T12:07:21;10.50;99.90
33994;DHT22;20673;48.980;8.138;2024-02-23T12:09:48;10.90;99.90
33994;DHT22;20673;48.980;8.138;2024-02-23T12:12:15;11.00;99.90
33994;DHT22;20673;48.980;8.138;2024-02-23T12:14:41;11.10;1.00
33994;DHT22;20673;48.980;8.138;2024-02-23T12:17:08;11.30;1.00
33994;DHT22;20673;48.980;8.138;2024-02-23T12:19:40;11.40;1.00
33994;DHT22;20673;48.980;8.138;2024-02-23T12:22:07;11.30;1.00
33994;DHT22;20673;48.980;8.138;2024-02-23T12:24:36;11.10;1.00
33994;DHT22;20673;48.980;8.138;2024-02-23T12:27:03;11.10;1.00
33994;DHT22;20673;48.980;8.138;2024-02-23T12:29:30;11.10;1.00
33994;DHT22;20673;48.980;8.138;2024-02-23T12:32:04;11.10;1.00
33994;DHT22;20673;48.980;8.138;2024-02-23T12:34:31;11.10;99.90
33994;DHT22;20673;48.980;8.138;2024-02-23T12:36:57;11.30;99.90
33994;DHT22;20673;48.980;8.138;2024-02-23T12:39:23;11.40;99.90
33994;DHT22;20673;48.980;8.138;2024-02-23T12:41:50;11.30;99.90
33994;DHT22;20673;48.980;8.138;2024-02-23T12:44:16;11.00;99.90
33994;DHT22;20673;48.980;8.138;2024-02-23T12:46:42;10.90;99.90
33994;DHT22;20673;48.980;8.138;2024-02-23T12:49:08;11.10;99.90
33994;DHT22;20673;48.980;8.138;2024-02-23T12:51:35;11.50;99.90
33994;DHT22;20673;48.980;8.138;2024-02-23T12:54:01;11.60;99.90
33994;DHT22;20673;48.980;8.138;2024-02-23T12:56:27;11.70;99.90
33994;DHT22;20673;48.980;8.138;2024-02-23T12:58:53;11.50;99.90
33994;DHT22;20673;48.980;8.138;2024-02-23T13:01:19;11.50;99.90
33994;DHT22;20673;48.980;8.138;2024-02-23T13:03:46;11.50;99.90
33994;DHT22;20673;48.980;8.138;2024-02-23T13:06:12;11.60;99.90
33994;DHT22;20673;48.980;8.138;2024-02-23T13:08:38;11.80;99.90
33994;DHT22;20673;48.980;8.138;2024-02-23T13:11:06;12.00;99.90
33994;DHT22;20673;48.980;8.138;2024-02-23T13:13:32;12.10;99.90
33994;DHT22;20673;48.980;8.138;2024-02-23T13:15:58;12.10;99.90
33994;DHT22;20673;48.980;8.138;2024-02-23T13:18:25;12.50;99.90
33994;DHT22;20673;48.980;8.138;2024-02-23T13:20:51;13.10;99.90
33994;DHT22;20673;48.980;8.138;2024-02-23T13:23:17;13.60;99.90
33994;DHT22;20673;48.980;8.138;2024-02-23T13:25:44;13.90;99.90
33994;DHT22;20673;48.980;8.138;2024-02-23T13:28:11;14.00;99.90
33994;DHT22;20673;48.980;8.138;2024-02-23T13:30:37;14.00;99.90
33994;DHT22;20673;48.980;8.138;2024-02-23T13:33:05;14.30;99.90
33994;DHT22;20673;48.980;8.138;2024-02-23T13:35:36;13.90;99.90
33994;DHT22;20673;48.980;8.138;2024-02-23T13:38:02;13.00;99.90
33994;DHT22;20673;48.980;8.138;2024-02-23T13:40:31;12.40;99.90
33994;DHT22;20673;48.980;8.138;2024-02-23T13:42:57;12.40;99.90
33994;DHT22;20673;48.980;8.138;2024-02-23T13:45:23;12.20;99.90
33994;DHT22;20673;48.980;8.138;2024-02-23T13:47:58;12.00;18.70
33994;DHT22;20673;48.980;8.138;2024-02-23T13:50:26;11.80;1.00
33994;DHT22;20673;48.980;8.138;2024-02-23T13:52:53;11.60;1.00
33994;DHT22;20673;48.980;8.138;2024-02-23T13:55:19;11.60;1.00
33994;DHT22;20673;48.980;8.138;2024-02-23T13:57:47;11.40;1.00
33994;DHT22;20673;48.980;8.138;2024-02-23T14:00:16;11.30;1.00
33994;DHT22;20673;48.980;8.138;2024-02-23T14:02:43;11.20;1.00
33994;DHT22;20673;48.980;8.138;2024-02-23T14:05:10;10.90;1.00
33994;DHT22;20673;48.980;8.138;2024-02-23T14:07:36;10.70;1.00
33994;DHT22;20673;48.980;8.138;2024-02-23T14:10:03;10.70;1.00
33994;DHT22;20673;48.980;8.138;2024-02-23T14:12:30;10.70;24.40
33994;DHT22;20673;48.980;8.138;2024-02-23T14:14:56;10.80;1.00
33994;DHT22;20673;48.980;8.138;2024-02-23T14:17:22;11.00;1.00
33994;DHT22;20673;48.980;8.138;2024-02-23T14:19:49;11.10;1.00
33994;DHT22;20673;48.980;8.138;2024-02-23T14:22:16;11.20;1.00
33994;DHT22;20673;48.980;8.138;2024-02-23T14:24:43;11.20;1.00
33994;DHT22;20673;48.980;8.138;2024-02-23T14:27:09;11.50;1.00
33994;DHT22;20673;48.980;8.138;2024-02-23T14:29:35;11.60;1.00
33994;DHT22;20673;48.980;8.138;2024-02-23T14:32:02;11.50;99.90
33994;DHT22;20673;48.980;8.138;2024-02-23T14:34:29;11.30;99.90
33994;DHT22;20673;48.980;8.138;2024-02-23T14:36:56;11.20;99.90
33994;DHT22;20673;48.980;8.138;2024-02-23T14:39:23;11.20;99.90
33994;DHT22;20673;48.980;8.138;2024-02-23T14:41:49;11.30;99.90
33994;DHT22;20673;48.980;8.138;2024-02-23T14:44:15;11.30;99.90
33994;DHT22;20673;48.980;8.138;2024-02-23T14:46:41;11.20;1.00
33994;DHT22;20673;48.980;8.138;2024-02-23T14:49:08;11.30;1.00
33994;DHT22;20673;48.980;8.138;2024-02-23T14:51:34;11.30;1.00
33994;DHT22;20673;48.980;8.138;2024-02-23T14:54:00;11.30;99.90
33994;DHT22;20673;48.980;8.138;2024-02-23T14:56:29;11.30;99.90
33994;DHT22;20673;48.980;8.138;2024-02-23T14:58:56;11.30;99.90
33994;DHT22;20673;48.980;8.138;2024-02-23T15:01:22;11.20;99.90
33994;DHT22;20673;48.980;8.138;2024-02-23T15:03:48;11.30;99.90
33994;DHT22;20673;48.980;8.138;2024-02-23T15:06:14;11.70;20.30
33994;DHT22;20673;48.980;8.138;2024-02-23T15:08:40;12.10;99.90
33994;DHT22;20673;48.980;8.138;2024-02-23T15:11:06;12.00;69.50
33994;DHT22;20673;48.980;8.138;2024-02-23T15:13:33;11.80;1.00
33994;DHT22;20673;48.980;8.138;2024-02-23T15:15:59;11.70;25.20
33994;DHT22;20673;48.980;8.138;2024-02-23T15:18:26;11.50;23.10
33994;DHT22;20673;48.980;8.138;2024-02-23T15:20:52;11.40;1.00
33994;DHT22;20673;48.980;8.138;2024-02-23T15:23:19;11.60;1.00
33994;DHT22;20673;48.980;8.138;2024-02-23T15:25:47;12.00;1.00
33994;DHT22;20673;48.980;8.138;2024-02-23T15:28:13;12.50;99.90
33994;DHT22;20673;48.980;8.138;2024-02-23T15:30:39;13.00;1.00
33994;DHT22;20673;48.980;8.138;2024-02-23T15:33:05;13.40;99.90
33994;DHT22;20673;48.980;8.138;2024-02-23T15:35:31;13.10;99.90
33994;DHT22;20673;48.980;8.138;2024-02-23T15:37:59;12.70;99.90
33994;DHT22;20673;48.980;8.138;2024-02-23T15:40:25;12.50;82.40
33994;DHT22;20673;48.980;8.138;2024-02-23T15:42:52;12.60;1.00
33994;DHT22;20673;48.980;8.138;2024-02-23T15:45:18;13.10;1.00
33994;DHT22;20673;48.980;8.138;2024-02-23T15:47:44;13.40;1.00
33994;DHT22;20673;48.980;8.138;2024-02-23T15:50:10;13.50;98.40
33994;DHT22;20673;48.980;8.138;2024-02-23T15:52:37;13.30;1.00